createdAt,value
2023-02-27T00:00:31.064Z,73.88
2023-02-27T00:03:01.155Z,74.19
2023-02-27T00:05:31.298Z,74.17
2023-02-27T00:08:03.989Z,74.36
2023-02-27T00:10:34.071Z,74.54
2023-02-27T00:13:04.103Z,74.69
2023-02-27T00:15:34.204Z,75.08
2023-02-27T00:18:04.285Z,75.29
2023-02-27T00:20:38.267Z,76.24
2023-02-27T00:23:11.506Z,76.12
2023-02-27T00:25:41.877Z,75.92
2023-02-27T00:28:11.886Z,75.71
2023-02-27T00:30:42.637Z,75.59
2023-02-27T00:33:13.095Z,75.74
2023-02-27T00:35:44.487Z,75.88
2023-02-27T00:38:17.171Z,76.03
2023-02-27T00:40:47.249Z,76.08
2023-02-27T00:43:17.795Z,75.83
2023-02-27T00:45:47.854Z,75.20
2023-02-27T00:48:18.230Z,74.55
2023-02-27T00:50:48.235Z,74.35
2023-02-27T00:53:20.982Z,74.24
2023-02-27T00:55:51.052Z,74.12
2023-02-27T00:58:21.104Z,74.44
2023-02-27T01:00:51.169Z,74.94
2023-02-27T01:03:21.296Z,75.64
2023-02-27T01:05:51.350Z,75.78
2023-02-27T01:08:24.144Z,75.76
2023-02-27T01:10:54.185Z,75.70
2023-02-27T01:13:24.244Z,75.53
2023-02-27T01:15:54.315Z,75.74
2023-02-27T01:18:24.360Z,75.86
2023-02-27T01:20:55.634Z,75.74
2023-02-27T01:23:28.387Z,75.50
2023-02-27T01:25:58.390Z,74.85
2023-02-27T01:28:30.270Z,74.41
2023-02-27T01:31:00.345Z,73.75
2023-02-27T01:33:30.436Z,73.83
2023-02-27T01:36:03.158Z,73.73
2023-02-27T01:38:35.855Z,74.24
2023-02-27T01:41:07.459Z,74.08
2023-02-27T01:43:55.660Z,73.77
2023-02-27T01:46:26.088Z,73.71
2023-02-27T01:48:59.749Z,74.10
2023-02-27T01:51:35.064Z,74.16
2023-02-27T01:54:09.729Z,74.05
2023-02-27T01:56:39.954Z,74.14
2023-02-27T01:59:12.433Z,74.36
2023-02-27T02:01:43.254Z,74.50
2023-02-27T02:04:18.006Z,74.21
2023-02-27T02:06:50.941Z,73.67
2023-02-27T02:09:24.881Z,73.49
2023-02-27T02:11:55.558Z,73.44
2023-02-27T02:14:25.625Z,73.68
2023-02-27T02:17:07.873Z,73.70
2023-02-27T02:19:56.581Z,74.17
2023-02-27T02:23:05.889Z,74.39
2023-02-27T02:26:02.272Z,74.33
2023-02-27T02:28:53.514Z,74.28
2023-02-27T02:31:56.238Z,74.27
2023-02-27T02:34:49.833Z,74.62
2023-02-27T02:38:00.886Z,74.41
2023-02-27T02:40:39.599Z,74.10
2023-02-27T02:43:15.644Z,73.54
2023-02-27T02:45:52.397Z,73.07
2023-02-27T02:48:29.407Z,72.61
2023-02-27T02:51:05.021Z,72.59
2023-02-27T02:53:41.183Z,72.42
2023-02-27T02:56:19.437Z,72.83
2023-02-27T02:58:55.162Z,73.05
2023-02-27T03:01:29.894Z,73.02
2023-02-27T03:04:07.097Z,72.84
2023-02-27T03:06:40.246Z,72.59
2023-02-27T03:09:15.240Z,72.13
2023-02-27T03:11:50.622Z,72.29
2023-02-27T03:14:26.140Z,72.75
2023-02-27T03:16:57.901Z,72.99
2023-02-27T03:19:30.879Z,73.18
2023-02-27T03:22:05.394Z,73.64
2023-02-27T03:24:38.215Z,74.10
2023-02-27T03:27:11.972Z,74.68
2023-02-27T03:29:45.884Z,74.29
2023-02-27T03:32:20.781Z,74.40
2023-02-27T03:34:51.302Z,74.37
2023-02-27T03:37:28.226Z,74.62
2023-02-27T03:40:04.454Z,74.63
2023-02-27T03:42:40.054Z,75.50
2023-02-27T03:45:21.806Z,76.33
2023-02-27T03:47:52.083Z,76.17
2023-02-27T03:50:22.692Z,75.81
2023-02-27T03:52:53.147Z,75.43
2023-02-27T03:55:25.081Z,75.15
2023-02-27T03:57:58.804Z,75.21
2023-02-27T04:00:29.329Z,75.54
2023-02-27T04:03:01.644Z,74.53
2023-02-27T04:05:33.380Z,74.16
2023-02-27T04:08:19.670Z,73.71
2023-02-27T04:11:07.399Z,73.81
2023-02-27T04:13:53.969Z,73.66
2023-02-27T04:16:49.229Z,73.79
2023-02-27T04:19:41.480Z,74.26
2023-02-27T04:22:20.272Z,74.57
2023-02-27T04:24:57.961Z,74.53
2023-02-27T04:27:35.677Z,74.37
2023-02-27T04:30:17.821Z,74.73
2023-02-27T04:32:54.599Z,74.88
2023-02-27T04:35:29.428Z,74.75
2023-02-27T04:38:03.712Z,74.47
2023-02-27T04:40:37.782Z,74.30
2023-02-27T04:43:10.495Z,74.60
2023-02-27T04:45:44.224Z,74.80
2023-02-27T04:48:20.124Z,73.98
2023-02-27T04:50:54.447Z,74.31
2023-02-27T04:53:28.653Z,74.13
2023-02-27T04:56:00.778Z,74.86
2023-02-27T04:58:35.256Z,74.72
2023-02-27T05:01:12.503Z,74.88
2023-02-27T05:03:46.306Z,74.71
2023-02-27T05:06:18.361Z,74.65
2023-02-27T05:08:54.639Z,74.48
2023-02-27T05:11:28.971Z,74.62
2023-02-27T05:14:02.725Z,75.10
2023-02-27T05:16:40.078Z,75.33
2023-02-27T05:19:10.814Z,75.47
2023-02-27T05:21:45.210Z,75.95
2023-02-27T05:24:22.996Z,75.89
2023-02-27T05:27:16.169Z,76.05
2023-02-27T05:29:50.679Z,75.58
2023-02-27T05:32:38.067Z,75.55
2023-02-27T05:35:14.367Z,74.99
2023-02-27T05:37:48.985Z,74.86
2023-02-27T05:40:22.489Z,74.87
2023-02-27T05:42:57.502Z,74.94
2023-02-27T05:45:31.562Z,75.09
2023-02-27T05:48:07.359Z,75.13
2023-02-27T05:50:39.156Z,75.01
2023-02-27T05:53:11.702Z,75.01
2023-02-27T05:55:45.560Z,75.37
2023-02-27T05:58:19.471Z,75.10
2023-02-27T06:00:52.557Z,75.35
2023-02-27T06:03:25.327Z,75.16
2023-02-27T06:05:57.015Z,75.50
2023-02-27T06:08:27.846Z,75.53
2023-02-27T06:13:03.034Z,76.86
2023-02-27T06:15:33.788Z,75.70
2023-02-27T06:18:04.352Z,75.61
2023-02-27T06:20:34.695Z,75.79
2023-02-27T06:23:05.077Z,76.05
2023-02-27T06:25:35.605Z,76.21
2023-02-27T06:28:09.311Z,75.72
2023-02-27T06:30:39.841Z,75.53
2023-02-27T06:33:10.724Z,74.52
2023-02-27T06:35:44.078Z,74.42
2023-02-27T06:38:14.442Z,74.36
2023-02-27T06:40:44.764Z,74.20
2023-02-27T06:43:17.909Z,74.25
2023-02-27T06:45:48.292Z,73.14
2023-02-27T06:48:18.815Z,73.46
2023-02-27T06:50:49.171Z,74.20
2023-02-27T06:53:19.551Z,73.95
2023-02-27T06:55:49.892Z,73.66
2023-02-27T06:58:24.873Z,72.84
2023-02-27T07:00:55.274Z,72.32
2023-02-27T07:03:25.551Z,71.83
2023-02-27T07:05:55.875Z,71.13
2023-02-27T07:08:26.681Z,71.62
2023-02-27T07:10:57.121Z,71.45
2023-02-27T07:13:30.210Z,70.75
2023-02-27T07:16:00.529Z,69.85
2023-02-27T07:18:31.189Z,69.49
2023-02-27T07:21:01.774Z,68.68
2023-02-27T07:23:32.775Z,68.39
2023-02-27T07:26:03.292Z,68.15
2023-02-27T07:28:36.362Z,67.52
2023-02-27T07:31:06.999Z,67.17
2023-02-27T07:33:37.454Z,67.78
2023-02-27T07:36:09.533Z,67.03
2023-02-27T07:38:39.842Z,63.85
2023-02-27T07:41:28.232Z,61.84
2023-02-27T07:44:07.082Z,59.34
2023-02-27T07:46:37.820Z,57.08
2023-02-27T07:49:08.668Z,54.02
2023-02-27T07:51:39.169Z,52.80
2023-02-27T07:54:11.004Z,51.61
2023-02-27T07:56:41.610Z,51.00
2023-02-27T07:59:15.011Z,52.21
2023-02-27T08:01:45.338Z,53.44
2023-02-27T08:04:15.812Z,53.85
2023-02-27T08:06:46.161Z,53.97
2023-02-27T08:09:16.588Z,55.05
2023-02-27T08:11:48.996Z,55.22
2023-02-27T08:14:23.192Z,55.40
2023-02-27T08:16:53.923Z,55.58
2023-02-27T08:19:24.298Z,55.68
2023-02-27T08:21:54.736Z,55.81
2023-02-27T08:24:25.233Z,55.66
2023-02-27T08:26:56.195Z,55.76
2023-02-27T08:29:31.090Z,56.18
2023-02-27T08:32:02.213Z,56.69
2023-02-27T08:34:33.114Z,57.40
2023-02-27T08:37:03.816Z,57.31
2023-02-27T08:39:34.227Z,56.94
2023-02-27T08:42:04.596Z,56.72
2023-02-27T08:44:37.591Z,55.06
2023-02-27T08:47:08.232Z,55.02
2023-02-27T08:49:38.712Z,55.32
2023-02-27T08:52:10.291Z,55.28
2023-02-27T08:54:40.705Z,55.78
2023-02-27T08:57:11.156Z,55.69
2023-02-27T08:59:44.241Z,55.96
2023-02-27T09:02:14.651Z,56.40
2023-02-27T09:04:45.091Z,56.79
2023-02-27T09:07:15.550Z,56.68
2023-02-27T09:09:45.923Z,56.85
2023-02-27T09:12:16.269Z,57.82
2023-02-27T09:14:49.609Z,58.01
2023-02-27T09:17:19.987Z,57.91
2023-02-27T09:19:51.475Z,57.79
2023-02-27T09:22:22.946Z,57.40
2023-02-27T09:24:53.293Z,57.33
2023-02-27T09:27:24.020Z,56.10
2023-02-27T09:29:57.466Z,56.14
2023-02-27T09:32:29.197Z,55.36
2023-02-27T09:35:00.560Z,54.11
2023-02-27T09:37:30.792Z,52.98
2023-02-27T09:40:01.158Z,52.98
2023-02-27T09:42:42.257Z,51.88
2023-02-27T09:45:26.253Z,50.72
2023-02-27T09:48:00.656Z,50.14
2023-02-27T09:50:41.741Z,50.04
2023-02-27T09:53:17.690Z,49.30
2023-02-27T09:55:49.614Z,49.90
2023-02-27T09:58:41.271Z,50.19
2023-02-27T10:01:22.992Z,50.43
2023-02-27T10:04:19.565Z,50.41
2023-02-27T10:06:55.390Z,50.14
2023-02-27T10:09:39.090Z,50.43
2023-02-27T10:12:45.896Z,51.05
2023-02-27T10:15:23.530Z,52.37
2023-02-27T10:18:10.465Z,52.72
2023-02-27T10:21:02.674Z,53.51
2023-02-27T10:23:42.209Z,53.74
2023-02-27T10:26:22.117Z,53.96
2023-02-27T10:28:52.494Z,54.46
2023-02-27T10:31:28.081Z,55.88
2023-02-27T10:34:03.951Z,56.80
2023-02-27T10:36:35.009Z,57.29
2023-02-27T10:39:09.818Z,58.40
2023-02-27T10:41:41.681Z,59.32
2023-02-27T10:44:18.786Z,60.33
2023-02-27T10:46:51.807Z,61.67
2023-02-27T10:49:25.656Z,62.46
2023-02-27T10:52:12.480Z,63.08
2023-02-27T10:54:45.002Z,63.42
2023-02-27T10:57:29.207Z,63.65
2023-02-27T11:00:05.114Z,63.60
2023-02-27T11:02:40.754Z,63.00
2023-02-27T11:05:27.359Z,62.34
2023-02-27T11:07:59.594Z,62.04
2023-02-27T11:10:31.792Z,61.97
2023-02-27T11:13:06.693Z,61.90
2023-02-27T11:15:40.611Z,61.76
2023-02-27T11:18:29.449Z,61.57
2023-02-27T11:21:18.205Z,61.28
2023-02-27T11:23:58.969Z,60.82
2023-02-27T11:26:37.103Z,60.91
2023-02-27T11:29:20.272Z,60.99
2023-02-27T11:31:56.707Z,61.80
2023-02-27T11:34:34.387Z,62.08
2023-02-27T11:37:09.667Z,62.78
2023-02-27T11:39:47.208Z,62.34
2023-02-27T11:42:28.117Z,62.02
2023-02-27T11:45:03.837Z,61.56
2023-02-27T11:47:39.262Z,61.13
2023-02-27T11:50:38.368Z,62.49
2023-02-27T11:53:37.469Z,62.90
2023-02-27T11:56:14.604Z,62.92
2023-02-27T11:58:52.435Z,63.47
2023-02-27T12:01:29.641Z,64.37
2023-02-27T12:04:07.000Z,64.52
2023-02-27T12:06:45.281Z,64.78
2023-02-27T12:09:37.716Z,65.43
2023-02-27T12:12:18.482Z,65.20
2023-02-27T12:15:02.695Z,65.32
2023-02-27T12:17:39.941Z,66.38
2023-02-27T12:20:31.551Z,65.96
2023-02-27T12:23:05.283Z,66.18
2023-02-27T12:25:47.324Z,66.21
2023-02-27T12:28:33.442Z,65.58
2023-02-27T12:31:34.360Z,65.56
2023-02-27T12:34:15.884Z,65.96
2023-02-27T12:36:46.284Z,65.71
2023-02-27T12:39:23.582Z,65.87
2023-02-27T12:42:27.402Z,64.63
2023-02-27T12:45:20.845Z,63.20
2023-02-27T12:48:04.586Z,62.79
2023-02-27T12:50:52.877Z,61.60
2023-02-27T12:53:48.999Z,61.00
2023-02-27T12:56:24.129Z,60.04
2023-02-27T12:59:06.845Z,59.04
2023-02-27T13:01:47.384Z,57.02
2023-02-27T13:04:26.677Z,55.50
2023-02-27T13:07:05.193Z,53.79
2023-02-27T13:09:44.384Z,52.46
2023-02-27T13:12:32.227Z,50.37
2023-02-27T13:15:09.496Z,48.63
2023-02-27T13:17:49.515Z,46.99
2023-02-27T13:20:33.529Z,46.98
2023-02-27T13:23:18.259Z,45.97
2023-02-27T13:25:53.197Z,44.80
2023-02-27T13:28:28.856Z,44.91
2023-02-27T13:31:10.710Z,44.00
2023-02-27T13:33:48.764Z,42.93
2023-02-27T13:36:26.168Z,42.15
2023-02-27T13:38:58.952Z,41.15
2023-02-27T13:41:41.654Z,40.46
2023-02-27T13:44:51.423Z,39.55
2023-02-27T13:47:44.520Z,38.61
2023-02-27T13:50:50.981Z,37.14
2023-02-27T13:53:24.676Z,37.19
2023-02-27T13:56:20.632Z,37.96
2023-02-27T13:58:52.197Z,39.35
2023-02-27T14:01:31.367Z,37.82
2023-02-27T14:04:11.692Z,35.42
2023-02-27T14:06:48.890Z,32.87
2023-02-27T14:09:24.009Z,31.47
2023-02-27T14:11:58.422Z,30.24
2023-02-27T14:14:45.239Z,29.03
2023-02-27T14:17:17.963Z,29.39
2023-02-27T14:19:59.858Z,31.02
2023-02-27T14:22:47.689Z,32.99
2023-02-27T14:25:34.795Z,34.88
2023-02-27T14:28:07.399Z,36.41
2023-02-27T14:30:43.647Z,37.24
2023-02-27T14:33:37.411Z,38.72
2023-02-27T14:36:21.574Z,40.33
2023-02-27T14:38:53.749Z,39.74
2023-02-27T14:41:39.602Z,38.71
2023-02-27T14:44:22.888Z,44.95
2023-02-27T14:46:55.002Z,42.99
2023-02-27T14:49:29.614Z,43.57
2023-02-27T14:52:15.530Z,44.91
2023-02-27T14:54:45.841Z,46.00
2023-02-27T14:57:21.118Z,46.73
2023-02-27T14:59:53.513Z,47.56
2023-02-27T15:02:28.058Z,47.86
2023-02-27T15:05:18.634Z,48.13
2023-02-27T15:07:52.405Z,48.44
2023-02-27T15:10:33.476Z,49.21
2023-02-27T15:13:04.143Z,48.69
2023-02-27T15:15:34.659Z,49.66
2023-02-27T15:18:05.570Z,50.52
2023-02-27T15:20:38.457Z,51.74
2023-02-27T15:23:29.655Z,51.95
2023-02-27T15:26:02.199Z,52.71
2023-02-27T15:28:41.496Z,53.08
2023-02-27T15:31:16.126Z,54.02
2023-02-27T15:33:46.854Z,54.99
2023-02-27T15:36:25.154Z,55.58
2023-02-27T15:39:17.870Z,56.18
2023-02-27T15:41:51.100Z,56.98
2023-02-27T15:44:26.773Z,56.73
2023-02-27T15:46:57.765Z,57.95
2023-02-27T15:49:29.471Z,58.67
2023-02-27T15:52:05.773Z,58.71
2023-02-27T15:54:39.485Z,59.14
2023-02-27T15:57:10.422Z,59.71
2023-02-27T15:59:45.476Z,59.65
2023-02-27T16:02:24.471Z,60.36
2023-02-27T16:04:55.319Z,61.24
2023-02-27T16:07:30.182Z,61.60
2023-02-27T16:10:11.463Z,61.72
2023-02-27T16:12:43.019Z,62.24
2023-02-27T16:15:32.426Z,62.67
2023-02-27T16:18:07.847Z,63.67
2023-02-27T16:20:45.305Z,64.09
2023-02-27T16:23:27.670Z,64.35
2023-02-27T16:26:30.963Z,64.61
2023-02-27T16:29:03.991Z,65.51
2023-02-27T16:31:36.967Z,65.19
2023-02-27T16:34:35.585Z,65.40
2023-02-27T16:37:23.662Z,66.08
2023-02-27T16:39:54.853Z,66.19
2023-02-27T16:42:28.132Z,66.47
2023-02-27T16:44:58.414Z,67.16
2023-02-27T16:47:29.036Z,67.16
2023-02-27T16:49:59.648Z,67.66
2023-02-27T16:52:30.086Z,68.18
2023-02-27T16:55:00.495Z,68.81
2023-02-27T16:57:33.401Z,69.10
2023-02-27T17:00:06.027Z,69.32
2023-02-27T17:02:36.702Z,69.58
2023-02-27T17:05:08.428Z,69.80
2023-02-27T17:07:38.923Z,70.18
2023-02-27T17:10:10.135Z,71.19
2023-02-27T17:12:44.143Z,72.43
2023-02-27T17:15:14.530Z,73.25
2023-02-27T17:17:45.103Z,73.43
2023-02-27T17:20:17.513Z,73.88
2023-02-27T17:22:48.502Z,74.39
2023-02-27T17:25:18.902Z,75.02
2023-02-27T17:27:51.928Z,75.30
2023-02-27T17:30:23.560Z,75.73
2023-02-27T17:32:53.830Z,76.47
2023-02-27T17:35:25.777Z,76.84
2023-02-27T17:37:56.107Z,77.05
2023-02-27T17:40:26.525Z,77.95
2023-02-27T17:42:59.769Z,78.26
2023-02-27T17:45:30.441Z,78.25
2023-02-27T17:48:00.826Z,78.66
2023-02-27T17:50:32.152Z,78.82
2023-02-27T17:53:02.248Z,79.28
2023-02-27T17:55:32.612Z,79.74
2023-02-27T17:58:08.250Z,79.62
2023-02-27T18:00:38.698Z,79.09
2023-02-27T18:03:09.574Z,78.85
2023-02-27T18:05:40.048Z,78.88
2023-02-27T18:08:13.703Z,78.91
2023-02-27T18:10:44.584Z,79.06
2023-02-27T18:13:17.897Z,78.83
2023-02-27T18:15:49.013Z,78.98
2023-02-27T18:18:19.529Z,78.56
2023-02-27T18:20:50.061Z,78.48
2023-02-27T18:23:20.604Z,77.80
2023-02-27T18:26:00.878Z,77.82
2023-02-27T18:28:34.204Z,77.67
2023-02-27T18:31:04.624Z,77.86
2023-02-27T18:33:35.834Z,77.43
2023-02-27T18:36:08.002Z,77.67
2023-02-27T18:38:39.330Z,77.95
2023-02-27T18:41:09.721Z,77.99
2023-02-27T18:43:43.918Z,77.87
2023-02-27T18:46:17.596Z,77.60
2023-02-27T18:48:49.295Z,77.94
2023-02-27T18:51:20.805Z,77.62
2023-02-27T18:53:53.553Z,77.48
2023-02-27T18:56:27.528Z,77.92
2023-02-27T18:59:05.492Z,77.48
2023-02-27T19:01:39.000Z,77.64
2023-02-27T19:04:11.519Z,77.18
2023-02-27T19:06:44.947Z,76.79
2023-02-27T19:09:21.641Z,76.73
2023-02-27T19:11:52.558Z,76.75
2023-02-27T19:14:25.627Z,76.85
2023-02-27T19:16:56.759Z,76.56
2023-02-27T19:19:28.369Z,76.71
2023-02-27T19:21:58.951Z,76.51
2023-02-27T19:24:32.186Z,76.62
2023-02-27T19:27:02.591Z,76.53
2023-02-27T19:29:35.642Z,76.64
2023-02-27T19:32:07.723Z,76.53
2023-02-27T19:34:38.138Z,76.46
2023-02-27T19:37:08.785Z,76.71
2023-02-27T19:39:39.404Z,76.85
2023-02-27T19:42:09.858Z,77.29
2023-02-27T19:44:43.354Z,77.05
2023-02-27T19:47:13.876Z,76.98
2023-02-27T19:49:44.412Z,76.76
2023-02-27T19:52:15.210Z,77.10
2023-02-27T19:54:45.586Z,76.89
2023-02-27T19:57:16.004Z,76.81
2023-02-27T19:59:49.023Z,76.79
2023-02-27T20:02:19.368Z,76.70
2023-02-27T20:04:49.867Z,76.48
2023-02-27T20:07:24.079Z,76.51
2023-02-27T20:09:57.686Z,76.88
2023-02-27T20:12:28.879Z,77.07
2023-02-27T20:15:08.213Z,76.91
2023-02-27T20:17:38.798Z,77.03
2023-02-27T20:20:12.314Z,76.95
2023-02-27T20:22:46.479Z,76.38
2023-02-27T20:25:16.979Z,76.18
2023-02-27T20:27:47.673Z,76.41
2023-02-27T20:30:21.020Z,76.23
2023-02-27T20:32:53.729Z,76.53
2023-02-27T20:35:24.128Z,76.23
2023-02-27T20:37:54.457Z,76.30
2023-02-27T20:40:26.125Z,76.28
2023-02-27T20:42:56.982Z,75.81
2023-02-27T20:45:30.700Z,75.89
2023-02-27T20:48:01.144Z,75.63
2023-02-27T20:50:31.575Z,76.08
2023-02-27T20:53:02.104Z,76.04
2023-02-27T20:55:32.607Z,75.63
2023-02-27T20:58:03.284Z,75.43
2023-02-27T21:00:36.345Z,75.71
2023-02-27T21:03:07.209Z,76.07
2023-02-27T21:05:37.738Z,75.89
2023-02-27T21:08:08.540Z,76.12
2023-02-27T21:10:41.623Z,76.41
2023-02-27T21:13:15.003Z,76.95
2023-02-27T21:15:48.910Z,76.94
2023-02-27T21:18:19.323Z,76.65
2023-02-27T21:20:49.747Z,76.67
2023-02-27T21:23:20.211Z,76.12
2023-02-27T21:25:52.369Z,76.08
2023-02-27T21:28:22.758Z,76.83
2023-02-27T21:30:58.448Z,76.97
2023-02-27T21:33:28.968Z,76.54
2023-02-27T21:35:59.511Z,76.71
2023-02-27T21:38:31.010Z,76.90
2023-02-27T21:41:01.506Z,76.44
2023-02-27T21:43:31.870Z,76.04
2023-02-27T21:46:08.034Z,76.09
2023-02-27T21:48:38.850Z,76.49
2023-02-27T21:51:10.366Z,77.09
2023-02-27T21:53:40.892Z,76.60
2023-02-27T21:56:13.330Z,76.23
2023-02-27T21:58:43.643Z,75.94
2023-02-27T22:01:24.608Z,75.71
2023-02-27T22:03:57.074Z,75.44
2023-02-27T22:06:31.472Z,75.23
2023-02-27T22:09:04.952Z,75.14
2023-02-27T22:11:37.635Z,75.59
2023-02-27T22:14:10.462Z,75.97
2023-02-27T22:16:43.494Z,76.02
2023-02-27T22:19:19.867Z,76.11
2023-02-27T22:21:51.714Z,76.35
2023-02-27T22:24:22.423Z,75.99
2023-02-27T22:26:52.911Z,76.09
2023-02-27T22:29:23.488Z,76.08
2023-02-27T22:31:56.865Z,76.40
2023-02-27T22:34:29.490Z,76.23
2023-02-27T22:37:00.108Z,76.18
2023-02-27T22:39:31.597Z,76.19
2023-02-27T22:42:02.103Z,76.05
2023-02-27T22:44:33.445Z,76.56
2023-02-27T22:47:06.553Z,76.93
2023-02-27T22:49:37.223Z,76.67
2023-02-27T22:52:08.878Z,76.68
2023-02-27T22:54:39.222Z,76.79
2023-02-27T22:57:12.998Z,76.66
2023-02-27T22:59:43.885Z,76.99
2023-02-27T23:02:17.632Z,77.09
2023-02-27T23:04:53.035Z,77.35
2023-02-27T23:07:25.634Z,77.41
2023-02-27T23:10:02.994Z,77.39
2023-02-27T23:12:35.595Z,77.38
2023-02-27T23:15:17.843Z,77.42
2023-02-27T23:17:58.270Z,77.38
2023-02-27T23:20:30.671Z,77.31
2023-02-27T23:23:02.367Z,76.92
2023-02-27T23:25:42.061Z,76.86
2023-02-27T23:28:14.904Z,76.70
2023-02-27T23:30:46.959Z,76.54
2023-02-27T23:33:20.263Z,76.15
2023-02-27T23:35:50.791Z,76.26
2023-02-27T23:38:21.930Z,76.45
2023-02-27T23:40:52.470Z,76.34
2023-02-27T23:43:35.456Z,76.48
2023-02-27T23:46:10.198Z,76.35
2023-02-27T23:48:43.812Z,76.14
2023-02-27T23:51:15.209Z,76.04
2023-02-27T23:53:46.499Z,76.41
2023-02-27T23:56:19.482Z,76.39
2023-02-27T23:58:51.493Z,76.86
